Time;durP1;ratioP1;P1;durP2;ratioP2;P2;SDS_P1;SDS_P2;PMS_P1;PMS_P2;Temp;Humidity;BMP_temperature;BMP_pressure;BME280_temperature;BME280_humidity;BME280_pressure;Samples;Min_cycle;Max_cycle;Signal;HPM_P1;HPM_P2
2022/11/11 00:01:12;;;;;;;7.82;4.35;;;11.90;99.90;;;;;;5099008;27;20047;-70
2022/11/11 00:03:38;;;;;;;6.38;4.53;;;12.00;99.90;;;;;;5134095;27;20108;-69
2022/11/11 00:06:09;;;;;;;10.20;4.63;;;12.00;99.90;;;;;;5133524;27;20633;-70
2022/11/11 00:08:35;;;;;;;9.73;5.18;;;11.90;99.90;;;;;;5115262;27;20099;-70
2022/11/11 00:11:11;;;;;;;8.48;4.53;;;12.00;99.90;;;;;;5133521;27;20043;-70
2022/11/11 00:13:38;;;;;;;7.53;4.50;;;12.00;99.90;;;;;;5115810;28;20086;-70
2022/11/11 00:16:11;;;;;;;8.50;4.63;;;12.00;99.90;;;;;;5133887;27;20108;-70
2022/11/11 00:27:13;;;;;;;8.20;5.18;;;11.90;99.90;;;;;;5114392;28;20596;-70
2022/11/11 00:29:39;;;;;;;9.68;4.60;;;11.90;99.90;;;;;;5133407;27;20047;-69
2022/11/11 00:32:21;;;;;;;9.43;4.97;;;11.90;99.90;;;;;;5133671;28;20083;-70
2022/11/11 00:37:35;;;;;;;9.43;5.10;;;11.80;99.90;;;;;;5132746;28;20182;-70
2022/11/11 00:40:01;;;;;;;8.93;4.68;;;11.90;99.90;;;;;;5134065;28;20100;-70
2022/11/11 00:42:27;;;;;;;8.20;4.68;;;11.80;99.90;;;;;;5133246;28;20051;-70
2022/11/11 00:44:53;;;;;;;11.13;5.15;;;11.90;99.90;;;;;;5133343;28;20172;-70
2022/11/11 00:52:50;;;;;;;9.75;4.35;;;11.80;99.90;;;;;;5133636;28;20047;-69
2022/11/11 00:55:16;;;;;;;8.13;4.60;;;12.00;99.90;;;;;;5114924;28;20376;-70
2022/11/11 00:57:41;;;;;;;9.10;4.80;;;11.80;99.90;;;;;;5115190;28;20043;-70
2022/11/11 01:00:08;;;;;;;11.23;5.15;;;12.10;99.90;;;;;;5133810;28;20469;-70
2022/11/11 01:02:33;;;;;;;9.18;4.82;;;11.80;99.90;;;;;;5097756;28;20051;-71
2022/11/11 01:04:59;;;;;;;10.13;4.70;;;12.00;99.90;;;;;;5133390;28;20049;-70
2022/11/11 01:07:25;;;;;;;9.13;4.82;;;12.00;99.90;;;;;;5132707;28;20127;-71
2022/11/11 01:09:51;;;;;;;9.25;4.85;;;11.80;99.90;;;;;;5132967;28;20046;-70
2022/11/11 01:12:16;;;;;;;12.93;5.22;;;11.70;99.90;;;;;;5114809;28;20054;-70
2022/11/11 01:14:42;;;;;;;9.48;5.15;;;11.90;99.90;;;;;;5098342;28;20547;-69
2022/11/11 01:17:08;;;;;;;9.35;5.13;;;11.80;99.90;;;;;;5132904;28;20407;-70
2022/11/11 01:19:34;;;;;;;14.35;5.45;;;11.80;99.90;;;;;;5132916;28;20475;-70
2022/11/11 01:22:01;;;;;;;9.48;4.93;;;11.80;99.90;;;;;;5133250;28;20405;-70
2022/11/11 01:24:26;;;;;;;10.35;5.72;;;11.80;99.90;;;;;;5133141;28;20058;-70
2022/11/11 01:26:52;;;;;;;9.68;5.35;;;12.00;99.90;;;;;;5098321;28;20478;-70
2022/11/11 01:29:18;;;;;;;6.90;5.05;;;11.80;99.90;;;;;;5133008;28;20079;-70
2022/11/11 01:31:44;;;;;;;11.43;5.63;;;11.90;99.90;;;;;;5114651;28;20497;-70
2022/11/11 01:34:10;;;;;;;7.30;5.13;;;11.90;99.90;;;;;;5132925;28;20111;-70
2022/11/11 01:36:35;;;;;;;9.02;5.50;;;11.90;99.90;;;;;;5133020;28;20043;-70
2022/11/11 01:39:01;;;;;;;9.95;5.45;;;12.20;99.90;;;;;;5134123;27;20387;-70
2022/11/11 01:41:36;;;;;;;13.10;5.72;;;11.90;99.90;;;;;;5136796;27;20095;-70
2022/11/11 01:44:17;;;;;;;10.32;5.70;;;11.90;99.90;;;;;;5136790;27;20039;-70
2022/11/11 01:46:55;;;;;;;14.60;5.60;;;11.80;99.90;;;;;;5136609;27;20091;-70
2022/11/11 01:49:41;;;;;;;13.23;5.50;;;11.80;99.90;;;;;;5136626;27;20047;-70
2022/11/11 01:52:13;;;;;;;11.73;5.80;;;11.90;99.90;;;;;;5136488;27;20103;-70
2022/11/11 01:54:48;;;;;;;12.70;5.47;;;12.00;99.90;;;;;;5136012;27;20569;-70
2022/11/11 01:57:35;;;;;;;11.25;5.60;;;11.80;99.90;;;;;;5118234;27;20047;-70
2022/11/11 02:00:07;;;;;;;14.27;5.85;;;11.90;99.90;;;;;;5136222;27;20043;-70
2022/11/11 02:02:44;;;;;;;10.77;6.00;;;11.80;99.90;;;;;;5136298;27;20062;-70
2022/11/11 02:07:58;;;;;;;8.45;5.40;;;11.90;99.90;;;;;;5135581;27;20055;-70
2022/11/11 02:10:27;;;;;;;11.70;5.65;;;12.10;99.90;;;;;;5136126;27;20129;-70
2022/11/11 02:15:37;;;;;;;8.80;5.75;;;11.90;99.90;;;;;;5103473;27;20476;-70
2022/11/11 02:18:04;;;;;;;10.85;5.53;;;11.90;99.90;;;;;;5135843;27;20112;-70
2022/11/11 02:20:34;;;;;;;9.82;6.28;;;12.00;99.90;;;;;;5136208;27;20115;-70
2022/11/11 02:23:06;;;;;;;12.70;6.05;;;12.20;99.90;;;;;;5136078;27;20054;-70
2022/11/11 02:25:33;;;;;;;9.43;5.80;;;11.90;99.90;;;;;;5135315;27;20059;-69
2022/11/11 02:28:04;;;;;;;9.65;6.30;;;11.80;99.90;;;;;;5135474;27;20406;-70
2022/11/11 02:30:30;;;;;;;11.93;5.95;;;12.00;99.90;;;;;;5135768;27;20079;-70
2022/11/11 02:32:55;;;;;;;9.18;5.70;;;12.00;99.90;;;;;;5117251;27;20113;-70
2022/11/11 02:35:36;;;;;;;12.45;6.60;;;11.80;99.90;;;;;;5116813;27;20051;-70
2022/11/11 02:38:07;;;;;;;9.48;6.22;;;11.90;99.90;;;;;;5116340;27;20776;-70
2022/11/11 02:41:55;;;;;;;12.40;6.90;;;11.80;99.90;;;;;;5135316;27;20043;-70
2022/11/11 02:43:27;;;;;;;10.60;6.38;;;11.80;99.90;;;;;;5116991;27;20047;-70
2022/11/11 02:45:53;;;;;;;13.30;7.32;;;11.80;99.90;;;;;;5135392;27;20375;-70
2022/11/11 02:48:19;;;;;;;14.55;6.95;;;11.80;99.90;;;;;;5117147;27;20050;-70
2022/11/11 02:50:45;;;;;;;14.98;7.75;;;11.90;99.90;;;;;;5116680;27;20047;-70
2022/11/11 02:53:10;;;;;;;10.43;7.57;;;11.80;99.90;;;;;;5135445;27;20046;-70
2022/11/11 02:55:36;;;;;;;11.02;7.95;;;11.80;99.90;;;;;;5135314;27;20047;-70
2022/11/11 02:58:03;;;;;;;14.88;8.35;;;11.70;99.90;;;;;;5135095;27;20043;-69
2022/11/11 03:00:28;;;;;;;11.32;7.82;;;11.70;99.90;;;;;;5135659;27;20047;-69
2022/11/11 03:02:54;;;;;;;12.60;7.90;;;11.70;99.90;;;;;;5135036;27;20047;-69
2022/11/11 03:05:20;;;;;;;12.95;8.35;;;11.90;99.90;;;;;;5134686;27;20047;-69
2022/11/11 03:07:46;;;;;;;15.77;9.40;;;11.70;99.90;;;;;;5099058;27;20054;-70
2022/11/11 03:10:12;;;;;;;11.95;9.45;;;11.60;99.90;;;;;;5134639;27;20039;-70
2022/11/11 03:12:38;;;;;;;14.18;9.80;;;11.60;99.90;;;;;;5134888;27;20085;-70
2022/11/11 03:15:04;;;;;;;15.00;9.15;;;11.60;99.90;;;;;;5116746;27;20068;-69
2022/11/11 03:17:39;;;;;;;13.05;9.80;;;11.60;99.90;;;;;;5116576;27;20092;-69
2022/11/11 03:23:14;;;;;;;17.30;10.48;;;11.50;99.90;;;;;;5134627;27;20103;-70
2022/11/11 03:25:42;;;;;;;15.95;10.23;;;11.40;99.90;;;;;;5134848;27;20055;-70
2022/11/11 03:28:19;;;;;;;15.63;10.20;;;11.50;99.90;;;;;;5134676;27;20448;-69
2022/11/11 03:30:47;;;;;;;14.93;11.10;;;11.40;99.90;;;;;;5134393;27;20096;-70
2022/11/11 03:33:14;;;;;;;16.15;10.82;;;11.40;99.90;;;;;;5134508;27;20050;-70
2022/11/11 03:35:40;;;;;;;17.45;10.65;;;11.40;99.90;;;;;;5134208;27;20506;-70
2022/11/11 03:38:14;;;;;;;17.45;11.75;;;11.70;99.90;;;;;;5134190;27;20043;-71
2022/11/11 03:40:42;;;;;;;19.48;11.45;;;11.60;99.90;;;;;;5134363;27;20147;-70
2022/11/11 03:43:08;;;;;;;19.73;11.32;;;11.40;99.90;;;;;;5115923;27;20130;-70
2022/11/11 03:45:33;;;;;;;15.65;11.05;;;11.30;99.90;;;;;;5134436;27;20130;-70
2022/11/11 03:47:59;;;;;;;18.58;11.43;;;11.40;99.90;;;;;;5134096;27;20084;-70
2022/11/11 03:50:25;;;;;;;14.45;11.50;;;11.50;99.90;;;;;;5116301;27;20172;-70
2022/11/11 03:52:50;;;;;;;16.95;11.23;;;11.60;99.90;;;;;;5134360;27;20058;-70
2022/11/11 03:55:16;;;;;;;18.63;12.00;;;11.40;99.90;;;;;;5134240;27;20563;-69
2022/11/11 03:57:45;;;;;;;17.08;10.80;;;11.40;99.90;;;;;;5133676;27;20070;-70
2022/11/11 04:00:19;;;;;;;15.60;10.93;;;11.40;99.90;;;;;;5133998;27;20100;-70
2022/11/11 04:11:28;;;;;;;14.15;11.45;;;11.40;99.90;;;;;;5133657;27;20051;-70
2022/11/11 04:16:44;;;;;;;17.15;12.23;;;11.40;99.90;;;;;;5133943;27;20051;-70
2022/11/11 04:21:53;;;;;;;16.05;12.30;;;11.40;99.90;;;;;;5133944;27;20500;-70
2022/11/11 04:27:11;;;;;;;18.27;12.50;;;11.50;99.90;;;;;;5115008;28;20097;-69
2022/11/11 04:29:37;;;;;;;17.35;12.07;;;11.40;99.90;;;;;;5133712;28;20100;-70
2022/11/11 04:34:57;;;;;;;18.92;12.65;;;11.40;99.90;;;;;;5133400;28;20146;-70
2022/11/11 04:37:24;;;;;;;17.70;12.80;;;11.30;99.90;;;;;;5133728;28;20444;-70
2022/11/11 04:42:36;;;;;;;17.52;12.00;;;11.40;99.90;;;;;;5133918;28;20050;-69
2022/11/11 04:48:04;;;;;;;17.90;12.85;;;11.30;99.90;;;;;;5133564;28;20077;-69
2022/11/11 04:50:41;;;;;;;21.50;13.00;;;11.30;99.90;;;;;;5115579;28;20065;-70
2022/11/11 04:53:11;;;;;;;18.65;12.90;;;11.30;99.90;;;;;;5133390;28;20046;-70
2022/11/11 04:58:28;;;;;;;21.98;13.00;;;11.30;99.90;;;;;;5133131;28;20548;-70
2022/11/11 05:00:54;;;;;;;20.75;12.32;;;11.30;99.90;;;;;;5133598;28;20077;-70
2022/11/11 05:03:23;;;;;;;19.25;12.45;;;11.30;99.90;;;;;;5133603;28;20047;-69
2022/11/11 05:08:55;;;;;;;20.95;13.75;;;11.40;99.90;;;;;;5132513;28;20516;-70
2022/11/11 05:11:21;;;;;;;;;;;11.50;99.90;;;;;;5133753;28;20082;-70
2022/11/11 05:22:14;;;;;;;22.73;14.38;;;11.20;99.90;;;;;;5137375;27;20054;-69
2022/11/11 05:27:25;;;;;;;22.45;14.30;;;11.20;99.90;;;;;;5137011;27;20194;-70
2022/11/11 05:29:51;;;;;;;20.63;14.30;;;11.50;99.90;;;;;;5137070;27;20062;-70
2022/11/11 05:32:22;;;;;;;19.83;13.63;;;11.50;99.90;;;;;;5136871;27;20390;-70
2022/11/11 05:34:48;;;;;;;21.92;13.57;;;11.20;99.90;;;;;;5136858;27;20039;-70
2022/11/11 05:37:14;;;;;;;24.67;13.63;;;11.50;99.90;;;;;;5118398;27;20099;-69
2022/11/11 05:39:40;;;;;;;21.58;14.27;;;11.20;99.90;;;;;;5136417;27;20047;-70
2022/11/11 05:42:06;;;;;;;21.75;13.80;;;11.40;99.90;;;;;;5136504;27;20043;-70
2022/11/11 05:44:32;;;;;;;21.50;13.40;;;11.30;99.90;;;;;;5136515;27;20058;-70
2022/11/11 05:46:57;;;;;;;20.08;12.73;;;11.30;99.90;;;;;;5136608;27;20035;-69
2022/11/11 05:49:24;;;;;;;22.08;13.93;;;11.30;99.90;;;;;;5136383;27;20398;-70
2022/11/11 05:51:50;;;;;;;20.83;14.23;;;11.40;99.90;;;;;;5136547;27;20047;-70
2022/11/11 05:54:16;;;;;;;20.10;13.60;;;11.20;99.90;;;;;;5136402;27;20039;-69
2022/11/11 05:56:42;;;;;;;24.77;14.23;;;11.50;99.90;;;;;;5118264;27;20412;-69
2022/11/11 05:59:08;;;;;;;20.95;13.85;;;11.50;99.90;;;;;;5136221;27;20048;-69
2022/11/11 06:01:35;;;;;;;20.92;13.45;;;11.30;99.90;;;;;;5136378;27;20050;-69
2022/11/11 06:04:01;;;;;;;18.98;12.80;;;11.30;99.90;;;;;;5135823;27;20047;-69
2022/11/11 06:06:27;;;;;;;24.85;13.88;;;11.30;99.90;;;;;;5118108;27;20050;-70
2022/11/11 06:08:53;;;;;;;21.17;13.13;;;11.30;99.90;;;;;;5117699;27;20115;-69
2022/11/11 06:11:19;;;;;;;21.75;12.90;;;11.60;99.90;;;;;;5135657;27;20085;-70
2022/11/11 06:13:44;;;;;;;20.05;12.95;;;11.30;99.90;;;;;;5136246;27;20442;-69
2022/11/11 06:16:10;;;;;;;20.30;13.40;;;11.30;99.90;;;;;;5136032;27;20142;-69
2022/11/11 06:18:36;;;;;;;21.05;12.52;;;11.30;99.90;;;;;;5136575;27;20047;-69
2022/11/11 06:21:02;;;;;;;19.67;12.65;;;11.40;99.90;;;;;;5117762;27;20083;-69
2022/11/11 06:23:28;;;;;;;19.83;12.82;;;11.30;99.90;;;;;;5135749;27;20050;-70
2022/11/11 06:26:12;;;;;;;23.95;13.27;;;11.30;99.90;;;;;;5134653;27;20043;-69
2022/11/11 06:28:52;;;;;;;23.38;13.48;;;11.70;99.90;;;;;;5135597;27;20498;-69
2022/11/11 06:31:23;;;;;;;21.27;12.90;;;11.40;99.90;;;;;;5117591;27;20043;-69
2022/11/11 06:33:49;;;;;;;19.90;12.60;;;11.40;99.90;;;;;;5135687;27;20406;-69
2022/11/11 06:36:17;;;;;;;21.30;13.38;;;11.40;99.90;;;;;;5117292;27;20492;-70
2022/11/11 06:38:43;;;;;;;19.15;13.40;;;11.50;99.90;;;;;;5134928;27;20047;-70
2022/11/11 06:41:11;;;;;;;22.83;13.90;;;11.50;99.90;;;;;;5117571;27;20522;-70
2022/11/11 06:43:41;;;;;;;17.30;12.43;;;11.60;99.90;;;;;;5136057;27;20060;-69
2022/11/11 06:46:16;;;;;;;20.13;12.68;;;11.40;99.90;;;;;;5135222;27;20047;-69
2022/11/11 06:48:42;;;;;;;20.85;13.25;;;11.60;99.90;;;;;;5118081;27;20043;-70
2022/11/11 06:51:10;;;;;;;21.25;12.48;;;11.40;99.90;;;;;;5116806;27;20054;-69
2022/11/11 06:53:36;;;;;;;24.25;13.63;;;11.40;99.90;;;;;;5135275;27;20039;-70
2022/11/11 06:56:01;;;;;;;19.60;12.85;;;11.50;99.90;;;;;;5135057;27;20047;-70
2022/11/11 06:58:27;;;;;;;21.90;12.98;;;11.50;99.90;;;;;;5116952;27;20051;-69
2022/11/11 07:00:53;;;;;;;20.27;13.07;;;11.40;99.90;;;;;;5135197;27;20089;-69
2022/11/11 07:03:21;;;;;;;21.77;12.95;;;11.60;99.90;;;;;;5116487;27;20051;-69
2022/11/11 07:05:46;;;;;;;20.67;13.32;;;11.60;99.90;;;;;;5135206;27;20506;-68
2022/11/11 07:08:15;;;;;;;19.95;13.18;;;11.50;99.90;;;;;;5134250;27;20043;-69
2022/11/11 07:10:45;;;;;;;22.48;13.57;;;11.40;99.90;;;;;;5116837;27;20039;-70
2022/11/11 07:13:11;;;;;;;22.63;13.95;;;11.30;99.90;;;;;;5134807;27;20042;-69
2022/11/11 07:15:37;;;;;;;20.15;12.85;;;11.40;99.90;;;;;;5134835;27;20054;-70
2022/11/11 07:18:03;;;;;;;21.15;13.35;;;11.40;99.90;;;;;;5134810;27;20467;-69
2022/11/11 07:20:29;;;;;;;21.27;12.07;;;11.40;99.90;;;;;;5134751;27;20108;-69
2022/11/11 07:22:55;;;;;;;17.48;12.15;;;11.30;99.90;;;;;;5134845;27;20039;-69
2022/11/11 07:25:21;;;;;;;18.30;12.50;;;11.50;99.90;;;;;;5116139;27;20368;-69
2022/11/11 07:27:47;;;;;;;22.38;13.77;;;11.40;99.90;;;;;;5116518;27;20051;-69
2022/11/11 07:30:12;;;;;;;21.92;11.93;;;11.40;99.90;;;;;;5116484;27;20079;-69
2022/11/11 07:32:49;;;;;;;18.30;12.45;;;11.30;99.90;;;;;;5134138;27;20111;-69
2022/11/11 07:35:17;;;;;;;23.45;12.88;;;11.40;99.90;;;;;;5133594;27;20483;-70
2022/11/11 07:37:43;;;;;;;20.63;13.60;;;11.40;99.90;;;;;;5133733;27;20457;-69
2022/11/11 07:40:12;;;;;;;24.92;13.73;;;11.40;99.90;;;;;;5133808;27;20051;-70
2022/11/11 07:42:38;;;;;;;21.52;13.00;;;11.40;99.90;;;;;;5134273;27;20039;-70
2022/11/11 07:45:05;;;;;;;22.55;12.85;;;11.40;99.90;;;;;;5134350;27;20058;-69
2022/11/11 07:47:33;;;;;;;20.83;12.60;;;11.40;99.90;;;;;;5133935;27;20520;-70
2022/11/11 07:49:59;;;;;;;19.05;11.77;;;11.60;99.90;;;;;;5134202;27;20125;-69
2022/11/11 07:52:25;;;;;;;21.98;12.18;;;11.40;99.90;;;;;;5133874;27;20546;-70
2022/11/11 07:54:50;;;;;;;20.00;12.00;;;11.40;99.90;;;;;;5133976;27;20043;-70
2022/11/11 07:57:16;;;;;;;20.98;11.93;;;11.40;99.90;;;;;;5116180;27;20478;-69
2022/11/11 07:59:42;;;;;;;18.38;11.73;;;11.60;99.90;;;;;;5133810;27;20047;-69
2022/11/11 08:02:11;;;;;;;20.65;11.93;;;11.50;99.90;;;;;;5133960;27;20078;-69
2022/11/11 08:04:37;;;;;;;18.58;10.93;;;11.70;99.90;;;;;;5115818;27;20047;-69
2022/11/11 08:07:03;;;;;;;18.85;11.73;;;11.40;99.90;;;;;;5115836;27;20046;-69
2022/11/11 08:09:28;;;;;;;19.13;12.05;;;11.40;99.90;;;;;;5133376;27;20397;-69
2022/11/11 08:14:38;;;;;;;21.42;11.70;;;11.40;99.90;;;;;;5134007;27;20043;-69
2022/11/11 08:17:03;;;;;;;19.25;11.63;;;11.60;99.90;;;;;;5115439;27;20051;-69
2022/11/11 08:19:29;;;;;;;20.48;12.63;;;11.40;99.90;;;;;;5098302;27;20100;-68
2022/11/11 08:21:55;;;;;;;19.85;12.00;;;11.40;99.90;;;;;;5133503;27;20055;-69
2022/11/11 08:24:21;;;;;;;18.90;11.65;;;11.40;99.90;;;;;;5133662;27;20043;-69
2022/11/11 08:26:48;;;;;;;17.77;11.23;;;10.80;99.90;;;;;;5133823;27;20047;-69
2022/11/11 08:29:14;;;;;;;18.83;13.55;;;11.40;99.90;;;;;;5133397;28;20039;-69
2022/11/11 08:31:39;;;;;;;21.10;12.95;;;11.50;99.90;;;;;;5115422;28;20039;-69
2022/11/11 08:34:05;;;;;;;21.08;12.68;;;11.60;99.90;;;;;;5133485;28;20450;-69
2022/11/11 08:36:31;;;;;;;21.85;13.30;;;11.50;99.90;;;;;;5133600;28;20055;-69
2022/11/11 08:38:57;;;;;;;20.55;12.60;;;11.50;99.90;;;;;;5133123;28;20090;-69
2022/11/11 08:41:23;;;;;;;20.70;12.68;;;11.60;99.90;;;;;;5133733;28;20051;-70
2022/11/11 08:43:53;;;;;;;21.50;13.55;;;11.50;99.90;;;;;;5133370;28;20127;-69
2022/11/11 08:46:19;;;;;;;23.20;13.32;;;11.60;99.90;;;;;;5115523;28;20433;-69
2022/11/11 08:48:45;;;;;;;20.13;12.27;;;11.60;99.90;;;;;;5136383;27;20047;-69
2022/11/11 08:51:10;;;;;;;18.48;11.80;;;11.60;99.90;;;;;;5137577;27;20058;-69
2022/11/11 08:53:36;;;;;;;19.27;11.25;;;11.90;99.90;;;;;;5137402;27;20505;-69
2022/11/11 08:56:03;;;;;;;17.35;10.40;;;11.60;99.90;;;;;;5119269;27;20038;-69
2022/11/11 08:58:29;;;;;;;19.27;10.90;;;11.60;99.90;;;;;;5119562;27;20035;-68
2022/11/11 09:00:55;;;;;;;19.30;11.35;;;11.90;99.90;;;;;;5137541;27;20039;-69
2022/11/11 09:03:21;;;;;;;19.10;11.27;;;11.50;99.90;;;;;;5119448;27;20100;-69
2022/11/11 09:05:47;;;;;;;17.98;10.75;;;11.60;99.90;;;;;;5119203;27;20122;-70
2022/11/11 09:08:13;;;;;;;18.15;11.00;;;11.60;99.90;;;;;;5119118;27;20046;-69
2022/11/11 09:10:39;;;;;;;18.55;11.40;;;11.90;99.90;;;;;;5137298;27;20479;-69
2022/11/11 09:13:05;;;;;;;20.73;11.85;;;11.60;99.90;;;;;;5137270;27;20179;-69
2022/11/11 09:15:32;;;;;;;16.00;11.50;;;11.60;99.90;;;;;;5137656;27;20505;-69
2022/11/11 09:17:58;;;;;;;20.55;12.27;;;11.80;99.90;;;;;;5119208;27;20517;-70
2022/11/11 09:20:24;;;;;;;19.92;12.27;;;11.80;99.90;;;;;;5119317;27;20074;-70
2022/11/11 09:22:51;;;;;;;19.88;11.85;;;11.60;99.90;;;;;;5119331;27;20049;-69
2022/11/11 09:25:18;;;;;;;19.83;10.90;;;11.50;99.90;;;;;;5136928;27;20051;-68
2022/11/11 09:27:52;;;;;;;16.13;10.70;;;12.00;99.90;;;;;;5119091;27;20050;-68
2022/11/11 09:30:18;;;;;;;16.63;10.43;;;11.40;99.90;;;;;;5119130;27;20374;-70
2022/11/11 09:32:43;;;;;;;22.73;11.13;;;11.70;99.90;;;;;;5118689;27;20061;-70
2022/11/11 09:35:09;;;;;;;21.58;12.48;;;11.60;99.90;;;;;;5118733;27;20039;-70
2022/11/11 09:37:34;;;;;;;23.95;13.80;;;11.90;99.90;;;;;;5118960;27;20039;-70
2022/11/11 09:40:00;;;;;;;22.35;12.90;;;11.60;99.90;;;;;;5135995;27;20550;-69
2022/11/11 09:42:41;;;;;;;27.77;13.50;;;11.70;99.90;;;;;;5136905;27;20493;-70
2022/11/11 09:45:29;;;;;;;20.92;14.63;;;11.70;99.90;;;;;;5118234;27;20046;-70
2022/11/11 09:48:29;;;;;;;21.98;15.10;;;11.70;99.90;;;;;;5121873;27;20178;-71
2022/11/11 09:50:58;;;;;;;26.30;16.38;;;11.60;99.90;;;;;;5147898;27;20091;-70
2022/11/11 09:53:28;;;;;;;25.15;17.25;;;11.70;99.90;;;;;;5127830;27;20051;-73
2022/11/11 09:56:12;;;;;;;25.05;17.67;;;11.70;99.90;;;;;;5146120;27;20058;-72
2022/11/11 09:58:48;;;;;;;28.60;18.92;;;11.80;99.90;;;;;;5146599;27;20043;-72
2022/11/11 10:01:24;;;;;;;28.90;16.48;;;11.80;99.90;;;;;;5128294;27;20039;-71
2022/11/11 10:04:00;;;;;;;20.42;15.15;;;11.80;99.90;;;;;;5146492;27;20065;-71
2022/11/11 10:06:34;;;;;;;25.10;17.45;;;11.80;99.90;;;;;;5127451;27;20058;-71
2022/11/11 10:09:06;;;;;;;28.73;17.13;;;11.70;99.90;;;;;;5144850;27;20058;-71
2022/11/11 10:11:47;;;;;;;21.25;12.68;;;11.80;99.90;;;;;;5146143;27;20042;-71
2022/11/11 10:14:13;;;;;;;13.68;8.98;;;11.80;99.90;;;;;;5110785;27;20087;-69
2022/11/11 10:17:00;;;;;;;12.38;8.50;;;11.80;99.90;;;;;;5146450;27;20058;-71
2022/11/11 10:19:41;;;;;;;15.18;8.45;;;12.00;99.90;;;;;;5144459;27;20099;-71
2022/11/11 10:22:26;;;;;;;13.75;8.77;;;11.90;99.90;;;;;;5127784;27;20042;-70
2022/11/11 10:25:12;;;;;;;13.00;8.48;;;11.80;99.90;;;;;;5127356;27;20486;-70
2022/11/11 10:27:43;;;;;;;14.65;9.13;;;11.80;99.90;;;;;;5102859;27;20049;-68
2022/11/11 10:30:31;;;;;;;13.18;8.25;;;12.10;99.90;;;;;;5145305;27;20095;-69
2022/11/11 10:33:18;;;;;;;15.25;9.63;;;11.90;99.90;;;;;;5128171;27;20450;-69
2022/11/11 10:35:45;;;;;;;13.32;8.80;;;11.90;99.90;;;;;;5146874;27;20041;-69
2022/11/11 10:38:36;;;;;;;12.00;7.55;;;12.00;99.90;;;;;;5128002;27;20043;-70
2022/11/11 10:41:39;;;;;;;12.23;7.80;;;11.90;99.90;;;;;;5127900;27;20035;-69
2022/11/11 10:44:23;;;;;;;11.00;7.38;;;11.90;99.90;;;;;;5048689;28;20040;-70
2022/11/11 10:47:28;;;;;;;14.00;8.10;;;11.90;99.90;;;;;;5138120;27;20055;-69
2022/11/11 10:50:00;;;;;;;16.58;10.15;;;11.90;99.90;;;;;;5145605;27;20054;-70
2022/11/11 10:52:40;;;;;;;14.70;9.47;;;11.90;99.90;;;;;;5146412;27;20039;-70
2022/11/11 10:55:12;;;;;;;10.43;7.55;;;12.00;99.90;;;;;;5144413;27;20373;-70
2022/11/11 10:57:53;;;;;;;16.30;9.82;;;12.00;99.90;;;;;;5147080;27;20164;-70
2022/11/11 11:00:19;;;;;;;14.70;9.77;;;12.00;99.90;;;;;;5146383;27;20479;-69
2022/11/11 11:03:05;;;;;;;14.30;8.05;;;12.10;99.90;;;;;;5127886;27;20114;-69
2022/11/11 11:05:57;;;;;;;12.00;7.88;;;12.20;99.90;;;;;;5144156;27;20099;-70
2022/11/11 11:08:40;;;;;;;14.27;8.98;;;12.00;99.90;;;;;;5145418;27;20031;-70
2022/11/11 11:11:17;;;;;;;11.30;7.82;;;12.90;99.90;;;;;;5125563;27;20463;-70
2022/11/11 11:13:54;;;;;;;13.15;7.60;;;12.10;99.90;;;;;;5145986;27;20058;-70
2022/11/11 11:16:24;;;;;;;10.38;7.30;;;12.00;99.90;;;;;;5146041;27;20054;-70
2022/11/11 11:19:31;;;;;;;12.98;8.02;;;12.20;99.90;;;;;;5122011;27;20467;-69
2022/11/11 11:21:58;;;;;;;12.15;7.43;;;12.20;99.90;;;;;;5116356;27;20478;-70
2022/11/11 11:24:27;;;;;;;12.57;8.65;;;12.20;99.90;;;;;;5134508;27;20043;-70
2022/11/11 11:26:58;;;;;;;13.00;7.60;;;12.20;99.90;;;;;;5099396;27;20100;-69
2022/11/11 11:29:26;;;;;;;12.77;7.63;;;12.10;99.90;;;;;;5134646;27;20470;-70
2022/11/11 11:31:51;;;;;;;10.73;7.55;;;12.10;99.90;;;;;;5134870;27;20042;-70
2022/11/11 11:34:17;;;;;;;11.20;7.35;;;12.10;99.90;;;;;;5116424;27;20039;-69
2022/11/11 11:36:43;;;;;;;12.45;7.65;;;12.10;99.90;;;;;;5116098;27;20051;-70
2022/11/11 11:39:08;;;;;;;9.52;7.20;;;12.00;99.90;;;;;;5116177;27;20076;-70
2022/11/11 11:41:43;;;;;;;13.75;7.20;;;12.00;99.90;;;;;;5129582;27;20035;-70
2022/11/11 11:44:28;;;;;;;12.80;7.60;;;12.40;99.90;;;;;;5125250;27;20035;-70
2022/11/11 11:47:28;;;;;;;12.75;7.68;;;12.20;99.90;;;;;;5127851;27;20091;-71
2022/11/11 11:50:10;;;;;;;10.48;6.93;;;12.30;99.90;;;;;;5144654;27;20035;-70
2022/11/11 11:52:38;;;;;;;13.10;7.70;;;12.20;99.90;;;;;;5144773;27;20125;-70
2022/11/11 11:55:18;;;;;;;13.27;8.65;;;12.30;99.90;;;;;;5142845;27;20035;-70
2022/11/11 11:57:53;;;;;;;15.50;9.38;;;12.40;99.90;;;;;;5126736;27;20090;-70
2022/11/11 12:00:29;;;;;;;11.75;8.27;;;12.40;99.90;;;;;;5109549;27;20619;-70
2022/11/11 12:03:23;;;;;;;13.70;8.20;;;12.40;99.90;;;;;;5144270;27;20505;-70
2022/11/11 12:06:08;;;;;;;12.98;8.70;;;12.50;99.90;;;;;;5144484;27;20046;-69
2022/11/11 12:08:52;;;;;;;15.15;8.82;;;12.40;99.90;;;;;;5125453;27;20054;-70
2022/11/11 12:11:43;;;;;;;12.68;8.95;;;12.40;99.90;;;;;;5144926;27;20047;-70
2022/11/11 12:14:39;;;;;;;15.45;8.27;;;12.40;99.90;;;;;;5144136;27;20038;-70
2022/11/11 12:17:32;;;;;;;10.45;6.85;;;12.80;99.90;;;;;;5115279;27;20513;-70
2022/11/11 12:20:06;;;;;;;10.05;7.18;;;12.50;99.90;;;;;;5124474;27;20394;-70
2022/11/11 12:22:50;;;;;;;10.85;6.95;;;12.40;99.90;;;;;;5142864;27;20036;-70
2022/11/11 12:25:26;;;;;;;10.00;6.80;;;12.40;99.90;;;;;;5143784;27;20160;-70
2022/11/11 12:28:20;;;;;;;11.68;7.05;;;12.30;99.90;;;;;;5143215;27;20051;-70
2022/11/11 12:31:05;;;;;;;12.65;7.63;;;12.30;99.90;;;;;;5145215;27;20061;-70
2022/11/11 12:33:49;;;;;;;13.43;8.85;;;12.30;99.90;;;;;;5143157;27;20043;-70
2022/11/11 12:36:42;;;;;;;14.18;9.05;;;12.30;99.90;;;;;;5144588;27;20044;-70
2022/11/11 12:39:29;;;;;;;14.15;8.65;;;12.30;99.90;;;;;;5142453;27;20035;-70
2022/11/11 12:42:15;;;;;;;9.57;6.88;;;12.40;99.90;;;;;;5144407;27;20043;-69
2022/11/11 12:45:11;;;;;;;10.23;6.25;;;12.30;99.90;;;;;;5126232;27;20034;-70
2022/11/11 12:47:40;;;;;;;11.77;7.07;;;12.30;99.90;;;;;;5144176;27;20042;-70
2022/11/11 12:50:18;;;;;;;10.85;6.60;;;12.40;99.90;;;;;;5142391;27;20038;-70
2022/11/11 12:52:47;;;;;;;8.63;6.03;;;12.30;99.90;;;;;;5126390;27;20038;-70
2022/11/11 12:55:22;;;;;;;10.07;6.38;;;12.20;99.90;;;;;;5125056;27;20031;-70
2022/11/11 12:58:09;;;;;;;11.27;7.97;;;12.30;99.90;;;;;;5142933;27;20043;-70
2022/11/11 13:00:49;;;;;;;12.82;9.30;;;12.30;99.90;;;;;;5143736;27;20039;-70
2022/11/11 13:03:42;;;;;;;14.90;9.65;;;12.30;99.90;;;;;;5125452;27;20051;-69
2022/11/11 13:06:16;;;;;;;14.15;10.25;;;12.50;99.90;;;;;;5139054;27;20182;-71
2022/11/11 13:09:00;;;;;;;17.95;12.07;;;12.20;99.90;;;;;;5141340;27;20069;-70
2022/11/11 13:11:43;;;;;;;17.92;10.63;;;12.30;99.90;;;;;;5144411;27;20065;-70
2022/11/11 13:14:29;;;;;;;11.20;7.57;;;12.40;99.90;;;;;;5142305;27;20046;-70
2022/11/11 13:16:59;;;;;;;11.73;6.78;;;12.20;99.90;;;;;;5144214;27;20046;-70
2022/11/11 13:19:40;;;;;;;11.75;6.80;;;12.20;99.90;;;;;;5144187;27;20039;-71
2022/11/11 13:22:19;;;;;;;9.38;6.97;;;12.20;99.90;;;;;;5144078;27;20054;-70
2022/11/11 13:24:45;;;;;;;12.23;6.88;;;12.20;99.90;;;;;;5141383;27;20039;-71
2022/11/11 13:27:33;;;;;;;12.10;7.40;;;12.20;99.90;;;;;;5144917;27;20051;-71
2022/11/11 13:30:04;;;;;;;9.65;6.32;;;12.20;99.90;;;;;;5143765;27;20125;-71
2022/11/11 13:32:38;;;;;;;11.82;7.00;;;12.10;99.90;;;;;;5144315;27;20039;-71
2022/11/11 13:35:17;;;;;;;8.98;6.75;;;12.30;99.90;;;;;;5111035;27;20103;-71
2022/11/11 13:37:44;;;;;;;9.23;6.40;;;12.40;99.90;;;;;;5133006;27;20042;-72
2022/11/11 13:40:31;;;;;;;9.68;6.63;;;12.20;99.90;;;;;;5127504;27;20035;-71
2022/11/11 13:42:57;;;;;;;11.65;7.30;;;12.30;99.90;;;;;;5147414;27;20051;-71
2022/11/11 13:45:40;;;;;;;10.85;7.10;;;12.10;99.90;;;;;;5076639;27;20042;-71
2022/11/11 13:48:06;;;;;;;11.45;7.05;;;12.20;99.90;;;;;;5145611;27;20482;-71
2022/11/11 13:50:39;;;;;;;11.27;7.63;;;12.20;99.90;;;;;;5146552;27;20044;-70
2022/11/11 13:53:12;;;;;;;9.98;7.10;;;12.20;99.90;;;;;;5147532;27;20123;-71
2022/11/11 13:55:43;;;;;;;10.82;6.78;;;12.20;99.90;;;;;;5111259;27;20126;-71
2022/11/11 13:58:36;;;;;;;12.07;6.93;;;12.10;99.90;;;;;;5145687;27;20046;-70
2022/11/11 14:01:06;;;;;;;10.40;7.00;;;12.30;99.90;;;;;;5146259;27;20038;-71
2022/11/11 14:03:53;;;;;;;11.85;6.82;;;12.20;99.90;;;;;;5110370;27;20057;-70
2022/11/11 14:06:19;;;;;;;12.25;6.82;;;12.20;99.90;;;;;;5134610;27;20058;-71